createdAt,value
2023-02-14T00:00:02.330Z,16.17
2023-02-14T00:02:29.146Z,17.90
2023-02-14T00:04:55.874Z,15.20
2023-02-14T00:07:22.620Z,14.50
2023-02-14T00:09:49.234Z,15.15
2023-02-14T00:12:15.877Z,14.55
2023-02-14T00:15:01.056Z,14.85
2023-02-14T00:17:27.960Z,14.80
2023-02-14T00:19:54.621Z,14.48
2023-02-14T00:22:21.385Z,15.63
2023-02-14T00:24:48.143Z,16.08
2023-02-14T00:27:15.012Z,16.83
2023-02-14T00:29:41.659Z,13.95
2023-02-14T00:32:08.379Z,15.13
2023-02-14T00:34:36.496Z,14.98
2023-02-14T00:37:04.296Z,15.48
2023-02-14T00:39:31.021Z,15.68
2023-02-14T00:41:57.652Z,16.52
2023-02-14T00:44:24.976Z,15.57
2023-02-14T00:46:52.046Z,14.50
2023-02-14T00:49:18.890Z,14.57
2023-02-14T00:51:45.522Z,15.93
2023-02-14T00:54:12.166Z,14.73
2023-02-14T00:56:38.860Z,13.18
2023-02-14T00:59:05.584Z,15.68
2023-02-14T01:01:32.301Z,16.08
2023-02-14T01:03:59.835Z,15.27
2023-02-14T01:06:27.029Z,15.13
2023-02-14T01:08:53.808Z,14.65
2023-02-14T01:11:22.578Z,13.57
2023-02-14T01:13:50.921Z,14.88
2023-02-14T01:16:20.562Z,13.85
2023-02-14T01:18:47.594Z,15.48
2023-02-14T01:21:18.662Z,14.10
2023-02-14T01:23:47.211Z,13.52
2023-02-14T01:26:14.340Z,15.43
2023-02-14T01:28:41.751Z,13.45
2023-02-14T01:31:30.220Z,13.63
2023-02-14T01:33:57.646Z,12.48
2023-02-14T01:36:33.228Z,13.48
2023-02-14T01:39:03.842Z,13.00
2023-02-14T01:41:33.257Z,13.30
2023-02-14T01:44:01.065Z,13.30
2023-02-14T01:46:30.483Z,14.77
2023-02-14T01:49:09.285Z,11.68
2023-02-14T01:51:39.818Z,11.88
2023-02-14T01:54:08.399Z,15.45
2023-02-14T01:56:39.690Z,14.00
2023-02-14T01:59:09.121Z,11.57
2023-02-14T02:01:36.065Z,14.07
2023-02-14T02:04:09.926Z,14.35
2023-02-14T02:06:43.810Z,14.35
2023-02-14T02:09:30.257Z,12.90
2023-02-14T02:11:57.379Z,12.93
2023-02-14T02:14:24.336Z,13.20
2023-02-14T02:17:15.384Z,11.63
2023-02-14T02:20:23.109Z,13.20
2023-02-14T02:23:09.140Z,10.50
2023-02-14T02:26:14.114Z,12.80
2023-02-14T02:29:05.233Z,12.10
2023-02-14T02:31:34.809Z,12.73
2023-02-14T02:34:22.820Z,13.55
2023-02-14T02:37:08.193Z,12.40
2023-02-14T02:40:06.928Z,11.85
2023-02-14T02:42:37.557Z,11.82
2023-02-14T02:45:58.162Z,12.13
2023-02-14T02:48:32.021Z,11.35
2023-02-14T02:51:20.136Z,12.52
2023-02-14T02:53:54.097Z,11.02
2023-02-14T02:56:46.205Z,13.30
2023-02-14T02:59:32.837Z,13.63
2023-02-14T03:02:15.533Z,13.45
2023-02-14T03:04:54.424Z,13.02
2023-02-14T03:07:38.962Z,12.18
2023-02-14T03:10:20.821Z,12.77
2023-02-14T03:13:05.557Z,10.20
2023-02-14T03:16:01.507Z,13.82
2023-02-14T03:18:58.872Z,12.93
2023-02-14T03:21:31.499Z,12.32
2023-02-14T03:24:11.635Z,11.90
2023-02-14T03:26:43.974Z,12.05
2023-02-14T03:29:22.360Z,12.95
2023-02-14T03:32:06.042Z,12.45
2023-02-14T03:34:43.919Z,12.95
2023-02-14T03:37:25.721Z,11.60
2023-02-14T03:40:18.700Z,12.82
2023-02-14T03:43:10.546Z,10.95
2023-02-14T03:45:42.876Z,11.25
2023-02-14T03:48:12.766Z,11.90
2023-02-14T03:50:42.397Z,12.57
2023-02-14T03:53:11.472Z,14.52
2023-02-14T03:55:50.419Z,13.35
2023-02-14T03:58:32.632Z,12.90
2023-02-14T04:01:06.370Z,12.57
2023-02-14T04:03:34.853Z,12.52
2023-02-14T04:06:01.708Z,13.05
2023-02-14T04:08:29.973Z,12.98
2023-02-14T04:11:00.557Z,13.00
2023-02-14T04:15:54.490Z,12.50
2023-02-14T04:18:39.917Z,12.35
2023-02-14T04:21:06.584Z,14.13
2023-02-14T04:23:33.232Z,13.50
2023-02-14T04:25:59.912Z,12.65
2023-02-14T04:28:26.567Z,12.85
2023-02-14T04:30:53.242Z,13.23
2023-02-14T04:33:19.974Z,12.45
2023-02-14T04:35:47.956Z,13.45
2023-02-14T04:38:14.576Z,12.13
2023-02-14T04:40:41.232Z,12.48
2023-02-14T04:43:08.397Z,14.20
2023-02-14T04:45:35.152Z,13.82
2023-02-14T04:48:01.812Z,10.77
2023-02-14T04:50:28.426Z,12.38
2023-02-14T04:52:55.071Z,13.48
2023-02-14T04:55:21.778Z,14.23
2023-02-14T04:57:48.497Z,12.68
2023-02-14T05:00:17.428Z,13.85
2023-02-14T05:02:44.889Z,11.70
2023-02-14T05:05:11.596Z,12.18
2023-02-14T05:07:38.314Z,12.75
2023-02-14T05:10:06.054Z,12.13
2023-02-14T05:12:32.696Z,11.38
2023-02-14T05:14:59.343Z,13.25
2023-02-14T05:17:26.030Z,12.82
2023-02-14T05:19:52.684Z,13.23
2023-02-14T05:22:19.300Z,13.07
2023-02-14T05:24:46.035Z,11.82
2023-02-14T05:27:12.684Z,11.77
2023-02-14T05:29:39.378Z,13.48
2023-02-14T05:32:06.161Z,11.65
2023-02-14T05:34:32.869Z,13.13
2023-02-14T05:36:59.520Z,12.93
2023-02-14T05:39:26.234Z,12.52
2023-02-14T05:41:52.880Z,11.88
2023-02-14T05:44:19.501Z,13.13
2023-02-14T05:46:46.117Z,13.13
2023-02-14T05:49:12.752Z,13.95
2023-02-14T05:51:41.527Z,12.77
2023-02-14T05:54:10.034Z,11.98
2023-02-14T05:56:37.562Z,13.15
2023-02-14T05:59:04.284Z,12.13
2023-02-14T06:01:30.926Z,13.93
2023-02-14T06:03:57.600Z,13.13
2023-02-14T06:06:24.250Z,14.48
2023-02-14T06:08:50.960Z,12.20
2023-02-14T06:11:17.623Z,13.13
2023-02-14T06:13:44.259Z,10.75
2023-02-14T06:16:10.909Z,11.02
2023-02-14T06:18:37.529Z,12.43
2023-02-14T06:21:04.277Z,12.38
2023-02-14T06:23:30.873Z,10.90
2023-02-14T06:25:57.489Z,11.57
2023-02-14T06:28:24.493Z,14.25
2023-02-14T06:30:51.762Z,12.60
2023-02-14T06:33:18.468Z,13.20
2023-02-14T06:35:45.514Z,13.38
2023-02-14T06:38:12.128Z,11.57
2023-02-14T06:40:38.772Z,13.05
2023-02-14T06:43:05.643Z,12.63
2023-02-14T06:45:32.464Z,11.85
2023-02-14T06:48:00.113Z,11.77
2023-02-14T06:50:26.793Z,13.55
2023-02-14T06:52:53.613Z,12.93
2023-02-14T06:55:20.252Z,11.60
2023-02-14T06:57:47.068Z,11.57
2023-02-14T07:00:14.949Z,11.95
2023-02-14T07:02:43.928Z,12.60
2023-02-14T07:05:10.630Z,11.15
2023-02-14T07:07:37.451Z,12.75
2023-02-14T07:10:04.662Z,11.60
2023-02-14T07:12:31.402Z,9.68
2023-02-14T07:14:58.066Z,10.38
2023-02-14T07:17:24.790Z,11.45
2023-02-14T07:19:51.444Z,11.65
2023-02-14T07:22:18.076Z,11.48
2023-02-14T07:24:44.758Z,12.30
2023-02-14T07:27:11.397Z,12.43
2023-02-14T07:29:38.032Z,12.55
2023-02-14T07:32:04.960Z,12.50
2023-02-14T07:34:31.737Z,12.20
2023-02-14T07:36:58.498Z,11.00
2023-02-14T07:39:25.105Z,12.35
2023-02-14T07:41:51.763Z,11.18
2023-02-14T07:44:18.600Z,12.85
2023-02-14T07:46:46.375Z,12.02
2023-02-14T07:49:13.059Z,11.70
2023-02-14T07:51:39.748Z,10.52
2023-02-14T07:54:06.617Z,11.90
2023-02-14T07:56:33.442Z,12.90
2023-02-14T07:59:02.566Z,11.25
2023-02-14T08:01:29.302Z,11.27
2023-02-14T08:03:55.940Z,10.65
2023-02-14T08:06:22.744Z,10.68
2023-02-14T08:08:52.091Z,12.55
2023-02-14T08:11:37.173Z,10.98
2023-02-14T08:14:05.038Z,10.40
2023-02-14T08:16:36.084Z,11.35
2023-02-14T08:19:02.873Z,9.52
2023-02-14T08:21:29.890Z,10.98
2023-02-14T08:23:57.255Z,12.07
2023-02-14T08:26:23.992Z,9.80
2023-02-14T08:28:50.777Z,12.57
2023-02-14T08:31:35.654Z,12.63
2023-02-14T08:34:03.526Z,12.30
2023-02-14T08:36:30.211Z,12.20
2023-02-14T08:38:57.668Z,12.32
2023-02-14T08:41:24.787Z,12.18
2023-02-14T08:43:51.576Z,11.18
2023-02-14T08:46:18.340Z,12.45
2023-02-14T08:48:47.625Z,11.23
2023-02-14T08:51:17.034Z,11.52
2023-02-14T08:53:46.345Z,12.10
2023-02-14T08:56:19.080Z,13.35
2023-02-14T08:58:45.783Z,11.00
2023-02-14T09:01:17.108Z,11.32
2023-02-14T09:03:44.565Z,11.07
2023-02-14T09:06:16.215Z,11.25
2023-02-14T09:08:44.989Z,11.38
2023-02-14T09:11:15.121Z,12.45
2023-02-14T09:13:42.876Z,10.10
2023-02-14T09:16:12.005Z,11.18
2023-02-14T09:18:39.413Z,10.68
2023-02-14T09:21:15.868Z,11.77
2023-02-14T09:23:42.704Z,10.57
2023-02-14T09:26:11.761Z,10.50
2023-02-14T09:28:38.898Z,11.02
2023-02-14T09:31:20.985Z,11.10
2023-02-14T09:33:50.288Z,12.65
2023-02-14T09:36:20.252Z,12.30
2023-02-14T09:38:47.235Z,11.07
2023-02-14T09:41:37.196Z,11.45
2023-02-14T09:44:22.392Z,8.65
2023-02-14T09:46:53.370Z,11.70
2023-02-14T09:49:31.577Z,10.50
2023-02-14T09:52:04.325Z,9.43
2023-02-14T09:54:34.548Z,11.07
2023-02-14T09:57:08.894Z,10.20
2023-02-14T09:59:43.343Z,11.40
2023-02-14T10:02:47.671Z,12.25
2023-02-14T10:05:37.387Z,11.30
2023-02-14T10:08:24.336Z,11.77
2023-02-14T10:11:05.678Z,10.18
2023-02-14T10:13:42.038Z,9.93
2023-02-14T10:16:18.587Z,9.57
2023-02-14T10:19:01.741Z,10.07
2023-02-14T10:21:54.743Z,11.07
2023-02-14T10:24:29.912Z,9.30
2023-02-14T10:27:11.598Z,11.10
2023-02-14T10:29:38.527Z,10.00
2023-02-14T10:32:14.194Z,9.50
2023-02-14T10:34:48.141Z,10.15
2023-02-14T10:37:23.714Z,11.00
2023-02-14T10:40:18.531Z,10.48
2023-02-14T10:43:18.574Z,10.15
2023-02-14T10:46:05.985Z,10.35
2023-02-14T10:48:51.351Z,10.10
2023-02-14T10:51:39.571Z,10.45
2023-02-14T10:54:19.022Z,10.15
2023-02-14T10:56:54.380Z,9.27
2023-02-14T10:59:55.138Z,9.98
2023-02-14T11:02:32.373Z,11.48
2023-02-14T11:05:02.985Z,9.48
2023-02-14T11:07:29.818Z,10.43
2023-02-14T11:09:57.371Z,10.38
2023-02-14T11:12:40.229Z,11.15
2023-02-14T11:15:39.029Z,10.65
2023-02-14T11:18:33.137Z,10.40
2023-02-14T11:21:02.587Z,10.15
2023-02-14T11:23:37.127Z,11.25
2023-02-14T11:26:08.832Z,10.60
2023-02-14T11:28:37.357Z,10.60
2023-02-14T11:31:04.750Z,10.98
2023-02-14T11:33:40.341Z,10.30
2023-02-14T11:36:15.454Z,11.05
2023-02-14T11:38:45.236Z,11.40
2023-02-14T11:41:15.106Z,10.43
2023-02-14T11:43:43.937Z,10.75
2023-02-14T11:46:20.105Z,9.98
2023-02-14T11:49:01.796Z,11.82
2023-02-14T11:51:42.857Z,11.70
2023-02-14T11:54:14.284Z,11.05
2023-02-14T11:56:57.080Z,11.90
2023-02-14T11:59:34.545Z,11.05
2023-02-14T12:02:25.822Z,12.70
2023-02-14T12:04:57.734Z,10.95
2023-02-14T12:07:33.510Z,11.90
2023-02-14T12:10:24.058Z,11.90
2023-02-14T12:13:20.595Z,11.57
2023-02-14T12:15:54.577Z,12.48
2023-02-14T12:18:37.971Z,12.38
2023-02-14T12:21:27.443Z,12.02
2023-02-14T12:24:18.532Z,12.95
2023-02-14T12:27:23.612Z,12.43
2023-02-14T12:30:08.949Z,11.93
2023-02-14T12:32:35.695Z,11.85
2023-02-14T12:35:04.929Z,12.27
2023-02-14T12:38:04.341Z,11.98
2023-02-14T12:41:19.517Z,12.60
2023-02-14T12:43:53.970Z,10.90
2023-02-14T12:46:36.992Z,12.75
2023-02-14T12:49:23.898Z,13.15
2023-02-14T12:52:49.015Z,11.75
2023-02-14T12:55:56.081Z,12.25
2023-02-14T12:58:49.860Z,12.13
2023-02-14T13:01:40.469Z,11.55
2023-02-14T13:04:34.679Z,12.68
2023-02-14T13:07:19.396Z,11.13
2023-02-14T13:09:59.311Z,12.68
2023-02-14T13:12:42.468Z,13.38
2023-02-14T13:15:53.063Z,13.38
2023-02-14T13:18:36.926Z,11.07
2023-02-14T13:21:06.429Z,13.07
2023-02-14T13:23:43.869Z,12.68
2023-02-14T13:26:14.275Z,12.40
2023-02-14T13:28:55.308Z,13.27
2023-02-14T13:31:22.628Z,12.27
2023-02-14T13:33:59.312Z,12.55
2023-02-14T13:36:28.856Z,12.43
2023-02-14T13:38:57.573Z,11.30
2023-02-14T13:41:26.962Z,12.70
2023-02-14T13:44:03.984Z,12.52
2023-02-14T13:46:33.727Z,13.57
2023-02-14T13:49:24.102Z,13.43
2023-02-14T13:51:53.592Z,12.73
2023-02-14T13:54:22.404Z,12.15
2023-02-14T13:56:49.402Z,13.30
2023-02-14T13:59:33.878Z,12.80
2023-02-14T14:02:30.189Z,12.23
2023-02-14T14:04:57.071Z,13.27
2023-02-14T14:07:30.811Z,13.07
2023-02-14T14:10:01.913Z,13.68
2023-02-14T14:12:28.593Z,14.18
2023-02-14T14:15:07.304Z,12.57
2023-02-14T14:17:38.924Z,12.95
2023-02-14T14:20:20.632Z,12.10
2023-02-14T14:22:56.547Z,15.10
2023-02-14T14:25:38.828Z,12.48
2023-02-14T14:28:24.247Z,12.65
2023-02-14T14:30:51.608Z,12.95
2023-02-14T14:33:31.231Z,12.50
2023-02-14T14:36:08.333Z,11.50
2023-02-14T14:38:47.094Z,12.95
2023-02-14T14:41:13.911Z,13.23
2023-02-14T14:43:41.330Z,13.27
2023-02-14T14:46:11.820Z,13.02
2023-02-14T14:48:47.194Z,12.93
2023-02-14T14:51:39.991Z,13.05
2023-02-14T14:54:21.752Z,13.00
2023-02-14T14:57:01.550Z,12.70
2023-02-14T14:59:35.564Z,11.68
2023-02-14T15:02:04.664Z,12.38
2023-02-14T15:04:34.115Z,11.88
2023-02-14T15:07:23.899Z,13.43
2023-02-14T15:09:51.221Z,11.50
2023-02-14T15:12:40.870Z,11.40
2023-02-14T15:15:10.958Z,12.48
2023-02-14T15:17:40.559Z,13.47
2023-02-14T15:20:15.119Z,10.93
2023-02-14T15:22:41.743Z,12.95
2023-02-14T15:25:16.691Z,12.43
2023-02-14T15:27:43.462Z,11.43
2023-02-14T15:30:19.586Z,12.65
2023-02-14T15:32:50.875Z,11.98
2023-02-14T15:35:25.393Z,12.10
2023-02-14T15:37:52.795Z,11.98
2023-02-14T15:40:28.743Z,12.85
2023-02-14T15:42:59.017Z,12.18
2023-02-14T15:45:26.108Z,13.05
2023-02-14T15:48:01.358Z,11.95
2023-02-14T15:50:34.702Z,12.80
2023-02-14T15:53:26.434Z,13.52
2023-02-14T15:55:54.398Z,11.73
2023-02-14T15:58:26.820Z,12.90
2023-02-14T16:00:54.347Z,12.77
2023-02-14T16:03:23.748Z,12.88
2023-02-14T16:05:51.640Z,11.77
2023-02-14T16:08:33.417Z,12.57
2023-02-14T16:11:03.881Z,13.60
2023-02-14T16:13:38.171Z,12.38
2023-02-14T16:16:07.308Z,11.40
2023-02-14T16:18:48.431Z,12.75
2023-02-14T16:21:23.707Z,11.43
2023-02-14T16:24:05.567Z,12.35
2023-02-14T16:26:37.873Z,13.32
2023-02-14T16:29:05.984Z,10.88
2023-02-14T16:31:37.019Z,11.95
2023-02-14T16:34:03.851Z,12.55
2023-02-14T16:36:32.938Z,13.40
2023-02-14T16:39:02.903Z,13.10
2023-02-14T16:41:31.266Z,14.80
2023-02-14T16:43:57.901Z,13.27
2023-02-14T16:46:35.683Z,12.93
2023-02-14T16:49:02.346Z,13.32
2023-02-14T16:51:32.426Z,13.57
2023-02-14T16:54:00.958Z,13.07
2023-02-14T16:56:35.808Z,12.82
2023-02-14T16:59:02.493Z,12.65
2023-02-14T17:01:29.294Z,12.38
2023-02-14T17:03:56.046Z,14.18
2023-02-14T17:06:27.529Z,12.63
2023-02-14T17:08:56.407Z,12.15
2023-02-14T17:11:24.933Z,12.70
2023-02-14T17:13:52.858Z,11.50
2023-02-14T17:16:19.903Z,14.05
2023-02-14T17:18:49.422Z,13.70
2023-02-14T17:21:19.779Z,13.52
2023-02-14T17:23:46.570Z,13.77
2023-02-14T17:26:14.230Z,12.38
2023-02-14T17:28:40.901Z,17.13
2023-02-14T17:31:08.095Z,15.90
2023-02-14T17:33:35.586Z,15.20
2023-02-14T17:36:12.002Z,14.98
2023-02-14T17:38:39.478Z,21.77
2023-02-14T17:41:22.218Z,13.80
2023-02-14T17:43:50.167Z,15.73
2023-02-14T17:46:20.576Z,14.18
2023-02-14T17:48:49.188Z,13.70
2023-02-14T17:51:17.908Z,14.10
2023-02-14T17:53:44.649Z,15.80
2023-02-14T17:56:20.391Z,13.43
2023-02-14T17:58:48.650Z,15.13
2023-02-14T18:01:17.851Z,16.23
2023-02-14T18:03:44.791Z,14.32
2023-02-14T18:06:12.110Z,17.23
2023-02-14T18:08:41.603Z,14.65
2023-02-14T18:11:10.405Z,13.05
2023-02-14T18:13:38.607Z,14.27
2023-02-14T18:16:10.717Z,14.38
2023-02-14T18:18:38.486Z,15.80
2023-02-14T18:21:09.014Z,15.30
2023-02-14T18:23:36.289Z,15.18
2023-02-14T18:26:06.086Z,14.55
2023-02-14T18:28:34.000Z,17.60
2023-02-14T18:31:15.809Z,14.98
2023-02-14T18:33:43.226Z,14.95
2023-02-14T18:36:14.551Z,12.57
2023-02-14T18:38:43.380Z,13.90
2023-02-14T18:41:12.544Z,14.15
2023-02-14T18:43:40.989Z,12.90
2023-02-14T18:46:17.482Z,13.23
2023-02-14T18:48:44.616Z,13.82
2023-02-14T18:51:15.512Z,13.32
2023-02-14T18:53:44.558Z,15.52
2023-02-14T18:56:14.475Z,14.10
2023-02-14T18:58:46.191Z,14.27
2023-02-14T19:01:18.788Z,13.90
2023-02-14T19:03:46.315Z,13.82
2023-02-14T19:06:13.402Z,13.10
2023-02-14T19:08:40.974Z,12.18
2023-02-14T19:11:17.991Z,13.05
2023-02-14T19:13:46.525Z,12.52
2023-02-14T19:16:15.853Z,11.63
2023-02-14T19:18:42.996Z,11.30
2023-02-14T19:21:14.301Z,12.77
2023-02-14T19:23:41.424Z,12.57
2023-02-14T19:26:17.608Z,12.85
2023-02-14T19:28:45.663Z,13.25
2023-02-14T19:31:12.937Z,11.45
2023-02-14T19:33:44.688Z,11.00
2023-02-14T19:36:13.169Z,11.52
2023-02-14T19:38:45.793Z,11.95
2023-02-14T19:41:21.854Z,11.82
2023-02-14T19:43:51.354Z,10.68
2023-02-14T19:46:20.500Z,12.25
2023-02-14T19:48:48.646Z,13.13
2023-02-14T19:51:22.673Z,10.98
2023-02-14T19:53:50.093Z,11.82
2023-02-14T19:56:28.246Z,11.13
2023-02-14T19:58:56.074Z,11.95
2023-02-14T20:01:36.123Z,12.27
2023-02-14T20:04:04.754Z,12.50
2023-02-14T20:06:31.463Z,11.45
2023-02-14T20:08:58.188Z,11.02
2023-02-14T20:11:41.312Z,12.95
2023-02-14T20:14:08.727Z,11.30
2023-02-14T20:16:36.552Z,10.55
2023-02-14T20:19:07.212Z,12.43
2023-02-14T20:21:34.600Z,11.13
2023-02-14T20:24:02.809Z,10.52
2023-02-14T20:26:31.619Z,11.60
2023-02-14T20:28:59.808Z,10.95
2023-02-14T20:31:26.664Z,10.38
2023-02-14T20:33:53.464Z,10.52
2023-02-14T20:36:20.475Z,12.10
2023-02-14T20:38:47.322Z,11.25
2023-02-14T20:41:16.509Z,10.27
2023-02-14T20:43:43.230Z,11.35
2023-02-14T20:46:10.037Z,10.55
2023-02-14T20:48:36.716Z,12.18
2023-02-14T20:51:14.909Z,12.43
2023-02-14T20:53:42.840Z,13.43
2023-02-14T20:56:10.262Z,12.07
2023-02-14T20:58:38.154Z,10.90
2023-02-14T21:01:09.625Z,11.60
2023-02-14T21:03:37.280Z,10.75
2023-02-14T21:06:05.848Z,14.63
2023-02-14T21:08:33.537Z,11.15
2023-02-14T21:11:00.525Z,12.55
2023-02-14T21:13:27.387Z,12.68
2023-02-14T21:15:54.140Z,11.55
2023-02-14T21:18:21.559Z,12.23
2023-02-14T21:20:48.215Z,10.70
2023-02-14T21:23:14.854Z,11.35
2023-02-14T21:25:41.502Z,11.32
2023-02-14T21:28:08.135Z,11.40
2023-02-14T21:30:34.764Z,13.50
2023-02-14T21:33:01.465Z,12.13
2023-02-14T21:35:28.114Z,9.95
2023-02-14T21:37:54.694Z,10.90
2023-02-14T21:40:22.656Z,10.88
2023-02-14T21:42:50.407Z,10.32
2023-02-14T21:45:35.491Z,10.55
2023-02-14T21:48:20.956Z,10.10
2023-02-14T21:50:47.555Z,8.63
2023-02-14T21:53:14.262Z,8.52
2023-02-14T21:55:42.681Z,10.95
2023-02-14T21:58:09.369Z,8.43
2023-02-14T22:00:35.999Z,10.65
2023-02-14T22:03:02.814Z,10.35
2023-02-14T22:05:29.625Z,9.15
2023-02-14T22:07:56.345Z,10.20
2023-02-14T22:10:22.991Z,9.13
2023-02-14T22:12:49.642Z,10.45
2023-02-14T22:15:16.280Z,11.25
2023-02-14T22:17:42.922Z,10.82
2023-02-14T22:20:10.343Z,11.07
2023-02-14T22:22:37.037Z,11.52
2023-02-14T22:25:03.794Z,11.52
2023-02-14T22:27:30.419Z,10.45
2023-02-14T22:29:57.061Z,10.07
2023-02-14T22:32:23.706Z,11.98
2023-02-14T22:34:50.422Z,9.63
2023-02-14T22:37:17.102Z,9.07
2023-02-14T22:39:43.757Z,9.55
2023-02-14T22:42:11.059Z,10.60
2023-02-14T22:44:37.711Z,11.02
2023-02-14T22:47:04.433Z,10.57
2023-02-14T22:49:31.137Z,10.48
2023-02-14T22:51:57.808Z,10.32
2023-02-14T22:54:24.461Z,9.52
2023-02-14T22:56:51.396Z,9.27
2023-02-14T22:59:24.062Z,9.90
2023-02-14T23:01:52.555Z,9.95
2023-02-14T23:04:22.394Z,9.65
2023-02-14T23:06:49.380Z,10.27
2023-02-14T23:09:16.217Z,9.65
2023-02-14T23:11:44.673Z,10.18
2023-02-14T23:14:31.760Z,10.98
2023-02-14T23:17:17.273Z,9.73
2023-02-14T23:20:03.656Z,9.75
2023-02-14T23:22:38.729Z,9.75
2023-02-14T23:25:08.631Z,8.63
2023-02-14T23:27:44.828Z,10.10
2023-02-14T23:30:14.745Z,10.20
2023-02-14T23:32:41.838Z,10.23
2023-02-14T23:35:08.830Z,9.27
2023-02-14T23:37:35.545Z,8.68
2023-02-14T23:40:03.923Z,9.27
2023-02-14T23:42:30.624Z,9.70
2023-02-14T23:45:17.507Z,8.30
2023-02-14T23:47:44.152Z,8.40
2023-02-14T23:50:10.960Z,9.73
2023-02-14T23:52:41.567Z,8.70
2023-02-14T23:55:09.025Z,9.25
2023-02-14T23:57:35.717Z,9.15
